createdAt,value
2019-05-23T00:00:49.402Z,13.50
2019-05-23T00:03:24.473Z,10.93
2019-05-23T00:05:58.940Z,11.47
2019-05-23T00:08:31.389Z,11.33
2019-05-23T00:11:21.776Z,12.50
2019-05-23T00:14:00.663Z,11.20
2019-05-23T00:16:31.785Z,11.60
2019-05-23T00:19:02.568Z,11.13
2019-05-23T00:21:34.733Z,11.87
2019-05-23T00:24:05.173Z,12.37
2019-05-23T00:26:35.982Z,12.93
2019-05-23T00:29:10.270Z,11.80
2019-05-23T00:32:07.036Z,11.47
2019-05-23T00:34:39.130Z,12.33
2019-05-23T00:37:12.497Z,12.30
2019-05-23T00:39:44.287Z,12.73
2019-05-23T00:42:14.943Z,11.73
2019-05-23T00:44:45.271Z,11.90
2019-05-23T00:47:16.589Z,12.97
2019-05-23T00:49:48.055Z,14.00
2019-05-23T00:52:18.616Z,14.03
2019-05-23T00:54:50.223Z,14.45
2019-05-23T00:57:21.520Z,14.53
2019-05-23T00:59:53.132Z,15.53
2019-05-23T01:02:24.679Z,14.17
2019-05-23T01:04:55.786Z,13.93
2019-05-23T01:07:26.914Z,13.53
2019-05-23T01:09:59.353Z,13.73
2019-05-23T01:12:30.835Z,13.37
2019-05-23T01:15:03.116Z,12.67
2019-05-23T01:17:33.456Z,13.20
2019-05-23T01:20:06.204Z,13.13
2019-05-23T01:22:36.754Z,12.57
2019-05-23T01:25:08.894Z,12.63
2019-05-23T01:27:39.625Z,13.40
2019-05-23T01:30:11.841Z,13.67
2019-05-23T01:32:49.818Z,13.77
2019-05-23T01:35:22.338Z,14.30
2019-05-23T01:37:52.579Z,13.73
2019-05-23T01:40:22.845Z,14.13
2019-05-23T01:42:55.184Z,14.17
2019-05-23T01:45:26.559Z,15.10
2019-05-23T01:47:57.690Z,15.33
2019-05-23T01:50:27.997Z,14.33
2019-05-23T01:52:58.404Z,13.30
2019-05-23T01:55:29.302Z,14.40
2019-05-23T01:58:00.369Z,12.18
2019-05-23T02:00:31.458Z,13.43
2019-05-23T02:03:01.837Z,12.53
2019-05-23T02:05:32.211Z,13.73
2019-05-23T02:08:03.248Z,14.17
2019-05-23T02:10:34.199Z,13.97
2019-05-23T02:13:04.828Z,14.00
2019-05-23T02:15:36.193Z,12.60
2019-05-23T02:18:06.703Z,13.67
2019-05-23T02:20:37.840Z,13.90
2019-05-23T02:23:09.559Z,14.13
2019-05-23T02:25:41.004Z,13.67
2019-05-23T02:28:11.406Z,13.50
2019-05-23T02:30:42.153Z,12.70
2019-05-23T02:33:13.487Z,13.47
2019-05-23T02:35:43.921Z,12.33
2019-05-23T02:38:36.619Z,11.47
2019-05-23T02:41:31.568Z,12.27
2019-05-23T02:44:08.979Z,12.00
2019-05-23T02:46:51.169Z,13.57
2019-05-23T02:49:24.687Z,14.07
2019-05-23T02:51:57.313Z,12.43
2019-05-23T02:54:36.970Z,11.43
2019-05-23T02:57:06.681Z,11.17
2019-05-23T03:00:05.960Z,11.90
2019-05-23T03:02:54.784Z,11.27
2019-05-23T03:05:28.044Z,10.80
2019-05-23T03:08:01.235Z,10.80
2019-05-23T03:11:04.214Z,10.17
2019-05-23T03:13:36.416Z,11.00
2019-05-23T03:16:07.797Z,11.47
2019-05-23T03:18:44.277Z,10.17
2019-05-23T03:21:15.516Z,11.37
2019-05-23T03:23:47.864Z,10.50
2019-05-23T03:27:01.367Z,10.77
2019-05-23T03:29:34.382Z,11.83
2019-05-23T03:32:22.478Z,11.00
2019-05-23T03:34:59.433Z,11.40
2019-05-23T03:37:29.768Z,10.90
2019-05-23T03:40:00.227Z,11.27
2019-05-23T03:42:30.851Z,69.63
2019-05-23T03:45:03.226Z,18.40
2019-05-23T03:47:34.273Z,14.60
2019-05-23T03:50:06.380Z,11.93
2019-05-23T03:52:37.874Z,11.63
2019-05-23T03:55:09.013Z,10.83
2019-05-23T03:57:39.258Z,10.57
2019-05-23T04:00:15.186Z,11.80
2019-05-23T04:02:46.588Z,11.70
2019-05-23T04:05:17.356Z,10.63
2019-05-23T04:07:48.426Z,10.57
2019-05-23T04:10:20.427Z,11.47
2019-05-23T04:12:51.309Z,11.27
2019-05-23T04:15:21.837Z,10.87
2019-05-23T04:17:52.421Z,11.12
2019-05-23T04:20:25.362Z,11.30
2019-05-23T04:22:55.684Z,11.83
2019-05-23T04:25:26.430Z,11.43
2019-05-23T04:27:57.189Z,10.60
2019-05-23T04:30:27.334Z,10.70
2019-05-23T04:32:57.466Z,12.15
2019-05-23T04:35:28.029Z,11.73
2019-05-23T04:37:58.268Z,11.80
2019-05-23T04:40:28.892Z,11.80
2019-05-23T04:42:59.129Z,11.23
2019-05-23T04:45:30.057Z,12.10
2019-05-23T04:48:00.228Z,11.30
2019-05-23T04:50:30.861Z,11.30
2019-05-23T04:53:02.307Z,11.43
2019-05-23T04:55:34.169Z,12.33
2019-05-23T04:58:05.261Z,11.87
2019-05-23T05:00:35.810Z,12.83
2019-05-23T05:03:07.480Z,11.67
2019-05-23T05:05:38.773Z,12.07
2019-05-23T05:08:08.884Z,13.60
2019-05-23T05:10:39.252Z,13.97
2019-05-23T05:13:09.347Z,13.83
2019-05-23T05:15:39.545Z,14.97
2019-05-23T05:18:09.958Z,14.70
2019-05-23T05:20:40.744Z,15.00
2019-05-23T05:23:10.923Z,17.37
2019-05-23T05:25:41.106Z,16.80
2019-05-23T05:28:11.323Z,18.63
2019-05-23T05:30:42.217Z,17.50
2019-05-23T05:33:12.326Z,19.40
2019-05-23T05:35:43.405Z,18.90
2019-05-23T05:38:13.839Z,17.83
2019-05-23T05:40:44.085Z,17.23
2019-05-23T05:43:15.045Z,17.33
2019-05-23T05:45:45.850Z,16.33
2019-05-23T05:48:16.262Z,16.83
2019-05-23T05:50:46.697Z,17.27
2019-05-23T05:53:16.914Z,17.83
2019-05-23T05:55:47.027Z,17.67
2019-05-23T05:58:17.150Z,17.83
2019-05-23T06:00:57.466Z,17.53
2019-05-23T06:03:27.868Z,16.67
2019-05-23T06:06:15.520Z,16.17
2019-05-23T06:08:48.165Z,16.43
2019-05-23T06:11:19.143Z,17.27
2019-05-23T06:13:49.411Z,16.53
2019-05-23T06:16:19.739Z,15.97
2019-05-23T06:18:50.089Z,15.67
2019-05-23T06:21:25.855Z,16.43
2019-05-23T06:23:56.337Z,16.10
2019-05-23T06:26:26.442Z,16.03
2019-05-23T06:28:56.548Z,15.60
2019-05-23T06:31:27.248Z,15.60
2019-05-23T06:33:57.566Z,15.87
2019-05-23T06:36:28.170Z,14.87
2019-05-23T06:38:58.357Z,14.80
2019-05-23T06:41:28.548Z,14.33
2019-05-23T06:43:58.761Z,15.37
2019-05-23T06:46:29.040Z,14.97
2019-05-23T06:48:59.324Z,15.20
2019-05-23T06:51:29.715Z,15.07
2019-05-23T06:53:59.912Z,14.60
2019-05-23T06:56:30.132Z,14.70
2019-05-23T06:59:00.439Z,14.43
2019-05-23T07:01:30.669Z,14.67
2019-05-23T07:04:01.442Z,14.87
2019-05-23T07:06:31.649Z,14.27
2019-05-23T07:09:01.873Z,13.97
2019-05-23T07:11:32.253Z,14.67
2019-05-23T07:14:02.866Z,13.47
2019-05-23T07:16:32.998Z,13.97
2019-05-23T07:19:03.243Z,13.63
2019-05-23T07:21:33.388Z,13.33
2019-05-23T07:24:03.526Z,13.80
2019-05-23T07:26:33.691Z,14.57
2019-05-23T07:29:04.742Z,14.30
2019-05-23T07:31:35.642Z,13.93
2019-05-23T07:34:06.194Z,13.73
2019-05-23T07:36:36.661Z,13.83
2019-05-23T07:39:11.653Z,13.37
2019-05-23T07:41:41.497Z,13.37
2019-05-23T07:44:11.721Z,12.53
2019-05-23T07:46:41.922Z,12.73
2019-05-23T07:49:12.728Z,13.83
2019-05-23T07:51:42.978Z,14.37
2019-05-23T07:54:50.722Z,13.43
2019-05-23T07:57:21.799Z,13.72
2019-05-23T07:59:52.612Z,12.87
2019-05-23T08:02:33.172Z,12.88
2019-05-23T08:05:05.315Z,13.50
2019-05-23T08:07:36.635Z,13.78
2019-05-23T08:10:09.159Z,15.13
2019-05-23T08:12:39.630Z,14.13
2019-05-23T08:15:10.229Z,13.78
2019-05-23T08:17:40.464Z,13.75
2019-05-23T08:20:13.210Z,15.05
2019-05-23T08:22:43.473Z,14.60
2019-05-23T08:25:13.756Z,14.20
2019-05-23T08:27:44.449Z,13.90
2019-05-23T08:30:15.513Z,14.58
2019-05-23T08:32:45.859Z,14.58
2019-05-23T08:35:18.102Z,14.73
2019-05-23T08:37:48.322Z,14.27
2019-05-23T08:40:19.894Z,12.78
2019-05-23T08:42:50.204Z,10.17
2019-05-23T08:45:22.036Z,8.53
2019-05-23T08:47:52.382Z,9.70
2019-05-23T08:50:24.091Z,10.00
2019-05-23T08:52:54.833Z,10.27
2019-05-23T18:54:34.002Z,2.35
2019-05-23T18:57:04.361Z,2.33
2019-05-23T18:59:34.575Z,2.62
2019-05-23T19:02:05.308Z,2.33
2019-05-23T19:04:35.524Z,2.60
2019-05-23T19:07:06.226Z,2.80
2019-05-23T19:09:37.282Z,2.50
2019-05-23T19:12:09.395Z,3.10
2019-05-23T19:14:39.636Z,2.90
2019-05-23T19:17:09.791Z,2.85
2019-05-23T19:19:40.127Z,3.52
2019-05-23T19:22:10.932Z,3.75
2019-05-23T19:24:41.163Z,4.00
2019-05-23T19:27:14.373Z,4.25
2019-05-23T19:29:44.334Z,4.42
2019-05-23T19:32:14.642Z,5.67
2019-05-23T19:34:44.992Z,6.25
2019-05-23T19:37:16.541Z,6.88
2019-05-23T19:39:46.693Z,6.97
2019-05-23T19:42:16.958Z,7.22
2019-05-23T19:44:47.049Z,7.47
2019-05-23T19:47:17.528Z,8.08
2019-05-23T19:49:47.783Z,7.58
2019-05-23T19:52:18.168Z,7.30
2019-05-23T19:54:48.804Z,7.92
2019-05-23T19:57:20.292Z,7.70
2019-05-23T19:59:51.644Z,7.40
2019-05-23T20:02:30.666Z,8.03
2019-05-23T20:05:06.930Z,7.67
2019-05-23T20:07:37.478Z,7.87
2019-05-23T20:10:08.345Z,7.12
2019-05-23T20:12:38.655Z,7.60
2019-05-23T20:15:09.319Z,7.78
2019-05-23T20:17:39.523Z,8.15
2019-05-23T20:20:09.802Z,8.20
2019-05-23T20:22:39.912Z,8.28
2019-05-23T20:25:10.950Z,8.00
2019-05-23T20:27:41.100Z,8.05
2019-05-23T20:30:16.347Z,7.70
2019-05-23T20:32:46.658Z,8.35
2019-05-23T20:35:16.734Z,7.60
2019-05-23T20:37:46.927Z,7.53
2019-05-23T20:40:17.416Z,7.92
2019-05-23T20:42:47.556Z,7.30
2019-05-23T20:45:20.253Z,7.05
2019-05-23T20:47:50.342Z,6.83
2019-05-23T20:50:20.557Z,7.40
2019-05-23T20:52:50.767Z,7.50
2019-05-23T20:55:20.834Z,6.83
2019-05-23T20:57:51.029Z,7.05
2019-05-23T21:00:27.505Z,6.97
2019-05-23T21:02:57.538Z,7.65
2019-05-23T21:05:27.629Z,7.60
2019-05-23T21:07:57.719Z,8.20
2019-05-23T21:10:48.589Z,8.00
2019-05-23T21:13:19.367Z,7.80
2019-05-23T21:15:49.723Z,7.83
2019-05-23T21:18:19.825Z,6.97
2019-05-23T21:20:50.011Z,7.30
2019-05-23T21:23:20.559Z,7.37
2019-05-23T21:26:05.871Z,7.65
2019-05-23T21:28:36.699Z,7.15
2019-05-23T21:31:19.764Z,6.70
2019-05-23T21:33:49.922Z,6.70
2019-05-23T21:36:20.108Z,7.17
2019-05-23T21:38:50.259Z,6.50
2019-05-23T21:41:20.314Z,6.62
2019-05-23T21:43:52.345Z,6.43
2019-05-23T21:46:22.528Z,6.85
2019-05-23T21:48:52.697Z,6.60
2019-05-23T21:51:22.960Z,8.20
2019-05-23T21:53:53.212Z,7.30
2019-05-23T21:56:23.373Z,7.10
2019-05-23T21:58:53.549Z,7.30
2019-05-23T22:01:50.762Z,7.07
2019-05-23T22:04:29.734Z,6.33
2019-05-23T22:07:07.460Z,6.53
2019-05-23T22:09:37.631Z,7.13
2019-05-23T22:12:10.126Z,6.30
2019-05-23T22:14:40.188Z,7.00
2019-05-23T22:17:11.003Z,7.03
2019-05-23T22:19:41.096Z,7.60
2019-05-23T22:22:11.832Z,6.93
2019-05-23T22:24:41.942Z,7.10
2019-05-23T22:27:12.683Z,7.27
2019-05-23T22:29:42.826Z,7.27
2019-05-23T22:32:14.575Z,7.53
2019-05-23T22:35:06.719Z,7.37
2019-05-23T22:37:36.766Z,6.83
2019-05-23T22:40:07.539Z,6.33
2019-05-23T22:42:37.652Z,6.20
2019-05-23T22:45:12.832Z,6.80
2019-05-23T22:47:42.928Z,5.80
2019-05-23T22:50:13.445Z,6.60
2019-05-23T22:52:43.602Z,7.03
2019-05-23T22:55:13.661Z,5.87
2019-05-23T22:57:43.750Z,6.27
2019-05-23T23:00:16.111Z,6.60
2019-05-23T23:02:46.364Z,7.20
2019-05-23T23:05:16.647Z,7.30
2019-05-23T23:07:47.106Z,7.17
2019-05-23T23:10:17.456Z,6.53
2019-05-23T23:12:47.693Z,6.93
2019-05-23T23:15:18.087Z,7.30
2019-05-23T23:17:48.254Z,7.37
2019-05-23T23:20:18.410Z,7.63
2019-05-23T23:22:48.585Z,8.17
2019-05-23T23:25:18.780Z,7.87
2019-05-23T23:27:49.060Z,7.23
2019-05-23T23:30:21.862Z,7.73
2019-05-23T23:32:51.865Z,8.10
2019-05-23T23:35:22.118Z,8.37
2019-05-23T23:37:52.303Z,7.90
2019-05-23T23:40:22.494Z,8.37
2019-05-23T23:42:52.678Z,7.60
2019-05-23T23:45:40.321Z,8.57
2019-05-23T23:48:28.764Z,8.23
2019-05-23T23:51:16.772Z,7.67
2019-05-23T23:54:04.853Z,7.70
2019-05-23T23:56:52.730Z,7.07
2019-05-23T23:59:21.949Z,7.90
